PWSweather.com
Personal Weather Stations
Station Observations
ARECO747
Argentina , San Antonio ArecoAR Bs.As

Argentina San Antonio ArecoAR Bs.As

Lat: -34.24447275818, Lon: -59.47654187679

Elevation: 102

Station Type: InformaciĆ³n generada con nuevo Microchip Ethernet conectado a estaciĆ³n WH1081

http://www.meteostar.com.ar

High Low Average
Temperature 70.2°F21.2°C 57.2°F14.0°C 63.7°F17.6°C
Dew Point 64.6°F18.1°C 55.9°F13.3°C 60.4°F15.8°C
Winds 12.1 mph 19.5 kmh Calm Calm 4.0 mph E6.4 kmh E
Wind Gusts 19.7 mph31.7 kmh -- 8.0 mph12.9 kmh
Humidity 97% 71% 90%
Pressure 30.18 in1022.0 mb 30.06 in1017.9 mb -
Precipitation 0.00 in0.0 mm - -
Hour Temp Dew Point Humidity Winds Wind Gusts Pressure Precip Precip Rate Daily Precip Total
12:01 AM 61.3°F16.3°C 58.5°F14.7°C 90% 4.5 mph SE7.2 kmh SE 9.2 mph14.8 kmh 30.15 in1021.0 mb 0.00 in0.0 mm 0.00 in0.0 mm 0.00 in0.0 mm
12:06 AM 61.3°F16.3°C 58.6°F14.8°C 91% 3.1 mph E5.0 kmh E 6.9 mph11.1 kmh 30.15 in1021.0 mb 0.00 in0.0 mm 0.00 in0.0 mm 0.00 in0.0 mm
12:11 AM 61.3°F16.3°C 58.6°F14.8°C 91% 4.5 mph SE7.2 kmh SE 9.2 mph14.8 kmh 30.14 in1020.7 mb 0.00 in0.0 mm 0.00 in0.0 mm 0.00 in0.0 mm
12:16 AM 60.8°F16.0°C 58.1°F14.5°C 91% 4.5 mph SE7.2 kmh SE 8.3 mph13.4 kmh 30.15 in1021.0 mb 0.00 in0.0 mm 0.00 in0.0 mm 0.00 in0.0 mm
12:21 AM 60.8°F16.0°C 58.5°F14.7°C 92% 3.1 mph W5.0 kmh W 7.6 mph12.2 kmh 30.14 in1020.7 mb 0.00 in0.0 mm 0.00 in0.0 mm 0.00 in0.0 mm
12:27 AM 60.8°F16.0°C 58.5°F14.7°C 92% 3.1 mph E5.0 kmh E 6.9 mph11.1 kmh 30.15 in1021.0 mb 0.00 in0.0 mm 0.00 in0.0 mm 0.00 in0.0 mm
12:32 AM 60.6°F15.9°C 58.3°F14.6°C 92% 3.8 mph SE6.1 kmh SE 6.0 mph9.7 kmh 30.15 in1021.0 mb 0.00 in0.0 mm 0.00 in0.0 mm 0.00 in0.0 mm
12:37 AM 60.4°F15.8°C 58.5°F14.7°C 93% 4.5 mph SE7.2 kmh SE 8.3 mph13.4 kmh 30.14 in1020.7 mb 0.00 in0.0 mm 0.00 in0.0 mm 0.00 in0.0 mm
12:42 AM 60.4°F15.8°C 58.5°F14.7°C 93% 2.2 mph E3.5 kmh E 6.9 mph11.1 kmh 30.14 in1020.7 mb 0.00 in0.0 mm 0.00 in0.0 mm 0.00 in0.0 mm
12:47 AM 60.4°F15.8°C 58.5°F14.7°C 93% 3.1 mph SE5.0 kmh SE 7.6 mph12.2 kmh 30.14 in1020.7 mb 0.00 in0.0 mm 0.00 in0.0 mm 0.00 in0.0 mm
12:52 AM 60.4°F15.8°C 58.6°F14.8°C 94% 2.2 mph E3.5 kmh E 9.2 mph14.8 kmh 30.14 in1020.7 mb 0.00 in0.0 mm 0.00 in0.0 mm 0.00 in0.0 mm
12:58 AM 60.3°F15.7°C 58.5°F14.7°C 94% 3.1 mph E5.0 kmh E 8.3 mph13.4 kmh 30.14 in1020.7 mb 0.00 in0.0 mm 0.00 in0.0 mm 0.00 in0.0 mm
01:03 AM 60.3°F15.7°C 58.5°F14.7°C 94% 5.4 mph S8.7 kmh S 8.3 mph13.4 kmh 30.14 in1020.7 mb 0.00 in0.0 mm 0.00 in0.0 mm 0.00 in0.0 mm
01:08 AM 60.3°F15.7°C 58.5°F14.7°C 94% 3.1 mph SE5.0 kmh SE 9.8 mph15.8 kmh 30.14 in1020.7 mb 0.00 in0.0 mm 0.00 in0.0 mm 0.00 in0.0 mm
01:13 AM 60.1°F15.6°C 58.3°F14.6°C 94% 3.1 mph E5.0 kmh E 9.2 mph14.8 kmh 30.14 in1020.7 mb 0.00 in0.0 mm 0.00 in0.0 mm 0.00 in0.0 mm
01:18 AM 59.9°F15.5°C 58.1°F14.5°C 94% 5.4 mph SW8.7 kmh SW 9.2 mph14.8 kmh 30.14 in1020.7 mb 0.00 in0.0 mm 0.00 in0.0 mm 0.00 in0.0 mm
01:23 AM 59.9°F15.5°C 58.1°F14.5°C 94% 2.2 mph SE3.5 kmh SE 9.2 mph14.8 kmh 30.14 in1020.7 mb 0.00 in0.0 mm 0.00 in0.0 mm 0.00 in0.0 mm
01:29 AM 59.9°F15.5°C 58.1°F14.5°C 94% 4.5 mph SE7.2 kmh SE 6.9 mph11.1 kmh 30.15 in1021.0 mb 0.00 in0.0 mm 0.00 in0.0 mm 0.00 in0.0 mm
01:34 AM 59.7°F15.4°C 58.3°F14.6°C 95% 2.2 mph SSE3.5 kmh SSE 8.3 mph13.4 kmh 30.15 in1021.0 mb 0.00 in0.0 mm 0.00 in0.0 mm 0.00 in0.0 mm
01:39 AM 59.7°F15.4°C 58.3°F14.6°C 95% 3.1 mph SE5.0 kmh SE 7.6 mph12.2 kmh 30.15 in1021.0 mb 0.00 in0.0 mm 0.00 in0.0 mm 0.00 in0.0 mm
01:44 AM 59.5°F15.3°C 58.1°F14.5°C 95% 3.1 mph E5.0 kmh E 7.6 mph12.2 kmh 30.15 in1021.0 mb 0.00 in0.0 mm 0.00 in0.0 mm 0.00 in0.0 mm
01:49 AM 59.5°F15.3°C 58.1°F14.5°C 95% 3.8 mph E6.1 kmh E 6.9 mph11.1 kmh 30.14 in1020.7 mb 0.00 in0.0 mm 0.00 in0.0 mm 0.00 in0.0 mm
01:54 AM 59.4°F15.2°C 57.9°F14.4°C 95% 3.1 mph E5.0 kmh E 6.0 mph9.7 kmh 30.15 in1021.0 mb 0.00 in0.0 mm 0.00 in0.0 mm 0.00 in0.0 mm
02:02 AM 59.2°F15.1°C 57.7°F14.3°C 95% 4.5 mph E7.2 kmh E -- 30.14 in1020.7 mb 0.00 in0.0 mm 0.00 in0.0 mm 0.00 in0.0 mm
02:05 AM 59.0°F15.0°C 57.6°F14.2°C 95% 3.8 mph E6.1 kmh E 5.4 mph8.7 kmh 30.14 in1020.7 mb 0.00 in0.0 mm 0.00 in0.0 mm 0.00 in0.0 mm
02:10 AM 59.0°F15.0°C 57.6°F14.2°C 95% 4.5 mph SW7.2 kmh SW 6.0 mph9.7 kmh 30.14 in1020.7 mb 0.00 in0.0 mm 0.00 in0.0 mm 0.00 in0.0 mm
02:15 AM 58.8°F14.9°C 57.4°F14.1°C 95% 3.1 mph SE5.0 kmh SE 6.0 mph9.7 kmh 30.15 in1021.0 mb 0.00 in0.0 mm 0.00 in0.0 mm 0.00 in0.0 mm
02:20 AM 58.8°F14.9°C 57.4°F14.1°C 95% 3.1 mph SE5.0 kmh SE 6.0 mph9.7 kmh 30.15 in1021.0 mb 0.00 in0.0 mm 0.00 in0.0 mm 0.00 in0.0 mm
02:26 AM 58.6°F14.8°C 57.2°F14.0°C 95% 2.2 mph SE3.5 kmh SE 5.4 mph8.7 kmh 30.14 in1020.7 mb 0.00 in0.0 mm 0.00 in0.0 mm 0.00 in0.0 mm
02:31 AM 58.5°F14.7°C 57.0°F13.9°C 95% 3.8 mph SE6.1 kmh SE 6.0 mph9.7 kmh 30.14 in1020.7 mb 0.00 in0.0 mm 0.00 in0.0 mm 0.00 in0.0 mm
02:36 AM 58.5°F14.7°C 57.0°F13.9°C 95% 3.8 mph SE6.1 kmh SE 6.0 mph9.7 kmh 30.14 in1020.7 mb 0.00 in0.0 mm 0.00 in0.0 mm 0.00 in0.0 mm
02:41 AM 58.5°F14.7°C 57.0°F13.9°C 95% 3.1 mph E5.0 kmh E 6.0 mph9.7 kmh 30.14 in1020.7 mb 0.00 in0.0 mm 0.00 in0.0 mm 0.00 in0.0 mm
02:46 AM 58.3°F14.6°C 56.8°F13.8°C 95% 3.8 mph SE6.1 kmh SE 6.0 mph9.7 kmh 30.14 in1020.7 mb 0.00 in0.0 mm 0.00 in0.0 mm 0.00 in0.0 mm
02:51 AM 58.5°F14.7°C 57.0°F13.9°C 95% 3.1 mph SE5.0 kmh SE 6.9 mph11.1 kmh 30.14 in1020.7 mb 0.00 in0.0 mm 0.00 in0.0 mm 0.00 in0.0 mm
02:57 AM 58.3°F14.6°C 56.8°F13.8°C 95% 3.1 mph S5.0 kmh S 9.2 mph14.8 kmh 30.13 in1020.3 mb 0.00 in0.0 mm 0.00 in0.0 mm 0.00 in0.0 mm
03:02 AM 58.3°F14.6°C 56.8°F13.8°C 95% 2.2 mph NE3.5 kmh NE 6.9 mph11.1 kmh 30.13 in1020.3 mb 0.00 in0.0 mm 0.00 in0.0 mm 0.00 in0.0 mm
03:07 AM 58.3°F14.6°C 56.8°F13.8°C 95% 3.1 mph SE5.0 kmh SE 7.6 mph12.2 kmh 30.13 in1020.3 mb 0.00 in0.0 mm 0.00 in0.0 mm 0.00 in0.0 mm
03:12 AM 58.3°F14.6°C 56.8°F13.8°C 95% 4.5 mph SE7.2 kmh SE 8.3 mph13.4 kmh 30.13 in1020.3 mb 0.00 in0.0 mm 0.00 in0.0 mm 0.00 in0.0 mm
03:17 AM 58.3°F14.6°C 56.8°F13.8°C 95% 3.8 mph SE6.1 kmh SE 7.6 mph12.2 kmh 30.13 in1020.3 mb 0.00 in0.0 mm 0.00 in0.0 mm 0.00 in0.0 mm
03:22 AM 58.3°F14.6°C 56.8°F13.8°C 95% 1.6 mph SE2.6 kmh SE 8.3 mph13.4 kmh 30.13 in1020.3 mb 0.00 in0.0 mm 0.00 in0.0 mm 0.00 in0.0 mm
03:28 AM 58.3°F14.6°C 56.5°F13.6°C 94% 3.8 mph S6.1 kmh S 7.6 mph12.2 kmh 30.12 in1020.0 mb 0.00 in0.0 mm 0.00 in0.0 mm 0.00 in0.0 mm
03:33 AM 58.1°F14.5°C 56.3°F13.5°C 94% 4.5 mph E7.2 kmh E 8.3 mph13.4 kmh 30.13 in1020.3 mb 0.00 in0.0 mm 0.00 in0.0 mm 0.00 in0.0 mm
03:38 AM 58.3°F14.6°C 56.5°F13.6°C 94% 3.1 mph SE5.0 kmh SE 8.3 mph13.4 kmh 30.12 in1020.0 mb 0.00 in0.0 mm 0.00 in0.0 mm 0.00 in0.0 mm
03:43 AM 58.1°F14.5°C 56.3°F13.5°C 94% 3.1 mph S5.0 kmh S 6.9 mph11.1 kmh 30.13 in1020.3 mb 0.00 in0.0 mm 0.00 in0.0 mm 0.00 in0.0 mm
03:48 AM 58.1°F14.5°C 56.3°F13.5°C 94% 1.6 mph SE2.6 kmh SE 6.9 mph11.1 kmh 30.13 in1020.3 mb 0.00 in0.0 mm 0.00 in0.0 mm 0.00 in0.0 mm
03:53 AM 57.9°F14.4°C 56.5°F13.6°C 95% 3.8 mph SE6.1 kmh SE 6.0 mph9.7 kmh 30.13 in1020.3 mb 0.00 in0.0 mm 0.00 in0.0 mm 0.00 in0.0 mm
03:59 AM 58.1°F14.5°C 56.3°F13.5°C 94% 1.6 mph SE2.6 kmh SE 6.0 mph9.7 kmh 30.12 in1020.0 mb 0.00 in0.0 mm 0.00 in0.0 mm 0.00 in0.0 mm
04:04 AM 57.9°F14.4°C 56.5°F13.6°C 95% 1.6 mph E2.6 kmh E 5.4 mph8.7 kmh 30.12 in1020.0 mb 0.00 in0.0 mm 0.00 in0.0 mm 0.00 in0.0 mm
04:09 AM 57.9°F14.4°C 56.8°F13.8°C 96% 2.2 mph SE3.5 kmh SE 6.9 mph11.1 kmh 30.12 in1020.0 mb 0.00 in0.0 mm 0.00 in0.0 mm 0.00 in0.0 mm
04:14 AM 57.9°F14.4°C 56.8°F13.8°C 96% 2.2 mph SSE3.5 kmh SSE 5.4 mph8.7 kmh 30.12 in1020.0 mb 0.00 in0.0 mm 0.00 in0.0 mm 0.00 in0.0 mm
04:19 AM 57.7°F14.3°C 56.7°F13.7°C 96% 2.2 mph E3.5 kmh E 5.4 mph8.7 kmh 30.13 in1020.3 mb 0.00 in0.0 mm 0.00 in0.0 mm 0.00 in0.0 mm
04:25 AM 57.7°F14.3°C 56.7°F13.7°C 96% 1.6 mph SE2.6 kmh SE 5.4 mph8.7 kmh 30.13 in1020.3 mb 0.00 in0.0 mm 0.00 in0.0 mm 0.00 in0.0 mm
04:30 AM 57.7°F14.3°C 56.7°F13.7°C 96% 3.8 mph E6.1 kmh E 6.9 mph11.1 kmh 30.12 in1020.0 mb 0.00 in0.0 mm 0.00 in0.0 mm 0.00 in0.0 mm
04:35 AM 57.7°F14.3°C 56.7°F13.7°C 96% 4.5 mph SE7.2 kmh SE 6.9 mph11.1 kmh 30.12 in1020.0 mb 0.00 in0.0 mm 0.00 in0.0 mm 0.00 in0.0 mm
04:40 AM 57.7°F14.3°C 56.7°F13.7°C 96% 5.4 mph SE8.7 kmh SE 9.2 mph14.8 kmh 30.12 in1020.0 mb 0.00 in0.0 mm 0.00 in0.0 mm 0.00 in0.0 mm
04:45 AM 57.7°F14.3°C 56.7°F13.7°C 96% 4.5 mph E7.2 kmh E 9.2 mph14.8 kmh 30.12 in1020.0 mb 0.00 in0.0 mm 0.00 in0.0 mm 0.00 in0.0 mm
04:50 AM 57.7°F14.3°C 56.7°F13.7°C 96% 4.5 mph E7.2 kmh E 9.8 mph15.8 kmh 30.12 in1020.0 mb 0.00 in0.0 mm 0.00 in0.0 mm 0.00 in0.0 mm
04:56 AM 57.7°F14.3°C 56.7°F13.7°C 96% 4.5 mph SE7.2 kmh SE 8.3 mph13.4 kmh 30.12 in1020.0 mb 0.00 in0.0 mm 0.00 in0.0 mm 0.00 in0.0 mm
05:01 AM 57.7°F14.3°C 56.7°F13.7°C 96% 3.1 mph SE5.0 kmh SE 7.6 mph12.2 kmh 30.12 in1020.0 mb 0.00 in0.0 mm 0.00 in0.0 mm 0.00 in0.0 mm
05:06 AM 57.7°F14.3°C 56.7°F13.7°C 96% 5.4 mph SE8.7 kmh SE 8.3 mph13.4 kmh 30.13 in1020.3 mb 0.00 in0.0 mm 0.00 in0.0 mm 0.00 in0.0 mm
05:11 AM 57.7°F14.3°C 56.7°F13.7°C 96% 3.8 mph E6.1 kmh E 8.3 mph13.4 kmh 30.13 in1020.3 mb 0.00 in0.0 mm 0.00 in0.0 mm 0.00 in0.0 mm
05:16 AM 57.6°F14.2°C 56.5°F13.6°C 96% 4.5 mph E7.2 kmh E 8.3 mph13.4 kmh 30.13 in1020.3 mb 0.00 in0.0 mm 0.00 in0.0 mm 0.00 in0.0 mm
05:21 AM 57.6°F14.2°C 56.5°F13.6°C 96% 3.8 mph SE6.1 kmh SE 7.6 mph12.2 kmh 30.14 in1020.7 mb 0.00 in0.0 mm 0.00 in0.0 mm 0.00 in0.0 mm
05:27 AM 57.6°F14.2°C 56.5°F13.6°C 96% 3.1 mph S5.0 kmh S 7.6 mph12.2 kmh 30.14 in1020.7 mb 0.00 in0.0 mm 0.00 in0.0 mm 0.00 in0.0 mm
05:32 AM 57.4°F14.1°C 56.3°F13.5°C 96% 3.1 mph SE5.0 kmh SE 6.0 mph9.7 kmh 30.13 in1020.3 mb 0.00 in0.0 mm 0.00 in0.0 mm 0.00 in0.0 mm
05:37 AM 57.4°F14.1°C 56.3°F13.5°C 96% 4.5 mph SE7.2 kmh SE 6.9 mph11.1 kmh 30.13 in1020.3 mb 0.00 in0.0 mm 0.00 in0.0 mm 0.00 in0.0 mm
05:42 AM 57.2°F14.0°C 56.1°F13.4°C 96% 3.1 mph E5.0 kmh E 6.0 mph9.7 kmh 30.13 in1020.3 mb 0.00 in0.0 mm 0.00 in0.0 mm 0.00 in0.0 mm
05:47 AM 57.2°F14.0°C 56.1°F13.4°C 96% 4.5 mph E7.2 kmh E 7.6 mph12.2 kmh 30.13 in1020.3 mb 0.00 in0.0 mm 0.00 in0.0 mm 0.00 in0.0 mm
05:52 AM 57.2°F14.0°C 56.1°F13.4°C 96% 3.1 mph E5.0 kmh E 7.6 mph12.2 kmh 30.14 in1020.7 mb 0.00 in0.0 mm 0.00 in0.0 mm 0.00 in0.0 mm
05:58 AM 57.4°F14.1°C 56.3°F13.5°C 96% 3.8 mph E6.1 kmh E 8.3 mph13.4 kmh 30.14 in1020.7 mb 0.00 in0.0 mm 0.00 in0.0 mm 0.00 in0.0 mm
06:03 AM 57.4°F14.1°C 56.3°F13.5°C 96% 4.5 mph E7.2 kmh E 9.2 mph14.8 kmh 30.14 in1020.7 mb 0.00 in0.0 mm 0.00 in0.0 mm 0.00 in0.0 mm
06:13 AM 57.4°F14.1°C 56.3°F13.5°C 96% 6.0 mph ESE9.7 kmh ESE 9.2 mph14.8 kmh 30.14 in1020.7 mb 0.00 in0.0 mm 0.00 in0.0 mm 0.00 in0.0 mm
06:18 AM 57.6°F14.2°C 56.5°F13.6°C 96% 4.5 mph E7.2 kmh E 7.6 mph12.2 kmh 30.13 in1020.3 mb 0.00 in0.0 mm 0.00 in0.0 mm 0.00 in0.0 mm
06:23 AM 57.6°F14.2°C 56.5°F13.6°C 96% 6.0 mph E9.7 kmh E 7.6 mph12.2 kmh 30.14 in1020.7 mb 0.00 in0.0 mm 0.00 in0.0 mm 0.00 in0.0 mm
06:29 AM 57.6°F14.2°C 56.5°F13.6°C 96% 3.1 mph E5.0 kmh E 8.3 mph13.4 kmh 30.14 in1020.7 mb 0.00 in0.0 mm 0.00 in0.0 mm 0.00 in0.0 mm
06:34 AM 57.6°F14.2°C 56.5°F13.6°C 96% 3.8 mph SE6.1 kmh SE 6.9 mph11.1 kmh 30.14 in1020.7 mb 0.00 in0.0 mm 0.00 in0.0 mm 0.00 in0.0 mm
06:39 AM 57.6°F14.2°C 56.1°F13.4°C 95% 3.1 mph SE5.0 kmh SE 6.9 mph11.1 kmh 30.14 in1020.7 mb 0.00 in0.0 mm 0.00 in0.0 mm 0.00 in0.0 mm
06:49 AM 57.4°F14.1°C 55.9°F13.3°C 95% 3.8 mph E6.1 kmh E 7.6 mph12.2 kmh 30.14 in1020.7 mb 0.00 in0.0 mm 0.00 in0.0 mm 0.00 in0.0 mm
06:54 AM 57.4°F14.1°C 55.9°F13.3°C 95% 3.8 mph E6.1 kmh E 8.3 mph13.4 kmh 30.14 in1020.7 mb 0.00 in0.0 mm 0.00 in0.0 mm 0.00 in0.0 mm
07:00 AM 57.4°F14.1°C 55.9°F13.3°C 95% 5.4 mph ENE8.7 kmh ENE 7.6 mph12.2 kmh 30.15 in1021.0 mb 0.00 in0.0 mm 0.00 in0.0 mm 0.00 in0.0 mm
07:05 AM 57.6°F14.2°C 56.1°F13.4°C 95% 6.0 mph E9.7 kmh E 6.9 mph11.1 kmh 30.14 in1020.7 mb 0.00 in0.0 mm 0.00 in0.0 mm 0.00 in0.0 mm
07:10 AM 57.6°F14.2°C 56.1°F13.4°C 95% 3.8 mph E6.1 kmh E 6.9 mph11.1 kmh 30.15 in1021.0 mb 0.00 in0.0 mm 0.00 in0.0 mm 0.00 in0.0 mm
07:15 AM 57.6°F14.2°C 56.1°F13.4°C 95% 3.8 mph SE6.1 kmh SE 5.4 mph8.7 kmh 30.15 in1021.0 mb 0.00 in0.0 mm 0.00 in0.0 mm 0.00 in0.0 mm
07:20 AM 57.6°F14.2°C 56.1°F13.4°C 95% 2.2 mph SE3.5 kmh SE 5.4 mph8.7 kmh 30.15 in1021.0 mb 0.00 in0.0 mm 0.00 in0.0 mm 0.00 in0.0 mm
07:25 AM 57.6°F14.2°C 56.1°F13.4°C 95% 1.6 mph SE2.6 kmh SE 4.5 mph7.2 kmh 30.16 in1021.3 mb 0.00 in0.0 mm 0.00 in0.0 mm 0.00 in0.0 mm
07:31 AM 57.4°F14.1°C 55.9°F13.3°C 95% 1.6 mph SE2.6 kmh SE 4.5 mph7.2 kmh 30.16 in1021.3 mb 0.00 in0.0 mm 0.00 in0.0 mm 0.00 in0.0 mm
07:36 AM 57.4°F14.1°C 55.9°F13.3°C 95% 0.7 mph E1.1 kmh E 3.1 mph5.0 kmh 30.16 in1021.3 mb 0.00 in0.0 mm 0.00 in0.0 mm 0.00 in0.0 mm
07:41 AM 57.4°F14.1°C 55.9°F13.3°C 95% 0.7 mph SE1.1 kmh SE 4.5 mph7.2 kmh 30.16 in1021.3 mb 0.00 in0.0 mm 0.00 in0.0 mm 0.00 in0.0 mm
07:46 AM 57.6°F14.2°C 56.1°F13.4°C 95% 2.2 mph SE3.5 kmh SE 4.5 mph7.2 kmh 30.16 in1021.3 mb 0.00 in0.0 mm 0.00 in0.0 mm 0.00 in0.0 mm
07:51 AM 57.7°F14.3°C 56.7°F13.7°C 96% 3.8 mph NE6.1 kmh NE 5.4 mph8.7 kmh 30.16 in1021.3 mb 0.00 in0.0 mm 0.00 in0.0 mm 0.00 in0.0 mm
07:56 AM 57.9°F14.4°C 56.8°F13.8°C 96% 2.2 mph E3.5 kmh E 4.5 mph7.2 kmh 30.16 in1021.3 mb 0.00 in0.0 mm 0.00 in0.0 mm 0.00 in0.0 mm
08:02 AM 58.3°F14.6°C 56.8°F13.8°C 95% 2.2 mph SE3.5 kmh SE 4.5 mph7.2 kmh 30.17 in1021.7 mb 0.00 in0.0 mm 0.00 in0.0 mm 0.00 in0.0 mm
08:07 AM 58.3°F14.6°C 56.8°F13.8°C 95% 3.8 mph SE6.1 kmh SE 4.5 mph7.2 kmh 30.17 in1021.7 mb 0.00 in0.0 mm 0.00 in0.0 mm 0.00 in0.0 mm
08:12 AM 58.5°F14.7°C 57.0°F13.9°C 95% 3.8 mph E6.1 kmh E 7.6 mph12.2 kmh 30.17 in1021.7 mb 0.00 in0.0 mm 0.00 in0.0 mm 0.00 in0.0 mm
08:17 AM 58.6°F14.8°C 56.8°F13.8°C 94% 2.2 mph E3.5 kmh E 6.0 mph9.7 kmh 30.18 in1022.0 mb 0.00 in0.0 mm 0.00 in0.0 mm 0.00 in0.0 mm
08:22 AM 58.8°F14.9°C 57.0°F13.9°C 94% 3.8 mph E6.1 kmh E 7.6 mph12.2 kmh 30.17 in1021.7 mb 0.00 in0.0 mm 0.00 in0.0 mm 0.00 in0.0 mm
08:27 AM 58.8°F14.9°C 57.0°F13.9°C 94% 5.4 mph NE8.7 kmh NE 8.3 mph13.4 kmh 30.18 in1022.0 mb 0.00 in0.0 mm 0.00 in0.0 mm 0.00 in0.0 mm
08:33 AM 59.2°F15.1°C 57.4°F14.1°C 94% 5.4 mph ESE8.7 kmh ESE 12.1 mph19.5 kmh 30.18 in1022.0 mb 0.00 in0.0 mm 0.00 in0.0 mm 0.00 in0.0 mm
08:38 AM 59.4°F15.2°C 57.4°F14.1°C 93% 3.1 mph NE5.0 kmh NE 7.6 mph12.2 kmh 30.18 in1022.0 mb 0.00 in0.0 mm 0.00 in0.0 mm 0.00 in0.0 mm
08:43 AM 59.7°F15.4°C 57.7°F14.3°C 93% 3.8 mph SE6.1 kmh SE 6.9 mph11.1 kmh 30.18 in1022.0 mb 0.00 in0.0 mm 0.00 in0.0 mm 0.00 in0.0 mm
08:48 AM 60.4°F15.8°C 58.1°F14.5°C 92% 3.8 mph E6.1 kmh E 8.3 mph13.4 kmh 30.18 in1022.0 mb 0.00 in0.0 mm 0.00 in0.0 mm 0.00 in0.0 mm
08:53 AM 60.6°F15.9°C 57.7°F14.3°C 90% 4.5 mph E7.2 kmh E 6.9 mph11.1 kmh 30.18 in1022.0 mb 0.00 in0.0 mm 0.00 in0.0 mm 0.00 in0.0 mm
08:58 AM 61.2°F16.2°C 57.9°F14.4°C 89% 3.8 mph SE6.1 kmh SE 8.3 mph13.4 kmh 30.17 in1021.7 mb 0.00 in0.0 mm 0.00 in0.0 mm 0.00 in0.0 mm
09:04 AM 60.6°F15.9°C 57.0°F13.9°C 88% 6.0 mph NE9.7 kmh NE 9.8 mph15.8 kmh 30.18 in1022.0 mb 0.00 in0.0 mm 0.00 in0.0 mm 0.00 in0.0 mm
09:09 AM 61.2°F16.2°C 57.6°F14.2°C 88% 6.0 mph E9.7 kmh E 9.8 mph15.8 kmh 30.18 in1022.0 mb 0.00 in0.0 mm 0.00 in0.0 mm 0.00 in0.0 mm
09:14 AM 62.2°F16.8°C 58.6°F14.8°C 88% 5.4 mph E8.7 kmh E 11.4 mph18.3 kmh 30.18 in1022.0 mb 0.00 in0.0 mm 0.00 in0.0 mm 0.00 in0.0 mm
09:19 AM 63.1°F17.3°C 58.6°F14.8°C 85% 7.6 mph E12.2 kmh E 12.1 mph19.5 kmh 30.18 in1022.0 mb 0.00 in0.0 mm 0.00 in0.0 mm 0.00 in0.0 mm
09:24 AM 63.1°F17.3°C 58.6°F14.8°C 85% 7.6 mph E12.2 kmh E 10.7 mph17.2 kmh 30.18 in1022.0 mb 0.00 in0.0 mm 0.00 in0.0 mm 0.00 in0.0 mm
09:29 AM 63.9°F17.7°C 58.6°F14.8°C 83% 7.6 mph E12.2 kmh E 12.1 mph19.5 kmh 30.17 in1021.7 mb 0.00 in0.0 mm 0.00 in0.0 mm 0.00 in0.0 mm
09:35 AM 64.0°F17.8°C 58.5°F14.7°C 82% 7.6 mph E12.2 kmh E 12.1 mph19.5 kmh 30.17 in1021.7 mb 0.00 in0.0 mm 0.00 in0.0 mm 0.00 in0.0 mm
09:40 AM 64.4°F18.0°C 58.8°F14.9°C 82% 7.6 mph ENE12.2 kmh ENE 12.1 mph19.5 kmh 30.18 in1022.0 mb 0.00 in0.0 mm 0.00 in0.0 mm 0.00 in0.0 mm
09:45 AM 64.8°F18.2°C 59.2°F15.1°C 82% 9.8 mph E15.8 kmh E 12.1 mph19.5 kmh 30.17 in1021.7 mb 0.00 in0.0 mm 0.00 in0.0 mm 0.00 in0.0 mm
09:50 AM 65.1°F18.4°C 59.2°F15.1°C 81% 6.9 mph E11.1 kmh E 13.0 mph20.9 kmh 30.17 in1021.7 mb 0.00 in0.0 mm 0.00 in0.0 mm 0.00 in0.0 mm
09:55 AM 65.7°F18.7°C 59.4°F15.2°C 80% 7.6 mph E12.2 kmh E 10.7 mph17.2 kmh 30.17 in1021.7 mb 0.00 in0.0 mm 0.00 in0.0 mm 0.00 in0.0 mm
10:00 AM 66.0°F18.9°C 59.7°F15.4°C 80% 6.9 mph E11.1 kmh E 12.1 mph19.5 kmh 30.17 in1021.7 mb 0.00 in0.0 mm 0.00 in0.0 mm 0.00 in0.0 mm
10:06 AM 66.6°F19.2°C 59.9°F15.5°C 79% 7.6 mph SE12.2 kmh SE 15.9 mph25.6 kmh 30.16 in1021.3 mb 0.00 in0.0 mm 0.00 in0.0 mm 0.00 in0.0 mm
10:11 AM 66.2°F19.0°C 59.5°F15.3°C 79% 9.8 mph E15.8 kmh E 15.9 mph25.6 kmh 30.16 in1021.3 mb 0.00 in0.0 mm 0.00 in0.0 mm 0.00 in0.0 mm
10:16 AM 66.2°F19.0°C 59.9°F15.5°C 80% 6.9 mph E11.1 kmh E 15.2 mph24.5 kmh 30.16 in1021.3 mb 0.00 in0.0 mm 0.00 in0.0 mm 0.00 in0.0 mm
10:21 AM 66.6°F19.2°C 60.3°F15.7°C 80% 6.9 mph ENE11.1 kmh ENE 11.4 mph18.3 kmh 30.16 in1021.3 mb 0.00 in0.0 mm 0.00 in0.0 mm 0.00 in0.0 mm
10:26 AM 66.9°F19.4°C 60.6°F15.9°C 80% 7.6 mph E12.2 kmh E 13.0 mph20.9 kmh 30.16 in1021.3 mb 0.00 in0.0 mm 0.00 in0.0 mm 0.00 in0.0 mm
10:32 AM 67.3°F19.6°C 60.3°F15.7°C 78% 4.5 mph E7.2 kmh E 15.9 mph25.6 kmh 30.16 in1021.3 mb 0.00 in0.0 mm 0.00 in0.0 mm 0.00 in0.0 mm
10:37 AM 67.8°F19.9°C 60.3°F15.7°C 77% 6.0 mph NE9.7 kmh NE 13.6 mph21.9 kmh 30.16 in1021.3 mb 0.00 in0.0 mm 0.00 in0.0 mm 0.00 in0.0 mm
10:42 AM 68.5°F20.3°C 60.3°F15.7°C 75% 6.9 mph NE11.1 kmh NE 12.1 mph19.5 kmh 30.16 in1021.3 mb 0.00 in0.0 mm 0.00 in0.0 mm 0.00 in0.0 mm
10:47 AM 68.0°F20.0°C 59.7°F15.4°C 75% 9.8 mph NE15.8 kmh NE 19.7 mph31.7 kmh 30.16 in1021.3 mb 0.00 in0.0 mm 0.00 in0.0 mm 0.00 in0.0 mm
10:52 AM 68.0°F20.0°C 60.1°F15.6°C 76% 8.3 mph NE13.4 kmh NE 14.5 mph23.3 kmh 30.16 in1021.3 mb 0.00 in0.0 mm 0.00 in0.0 mm 0.00 in0.0 mm
10:57 AM 69.4°F20.8°C 60.8°F16.0°C 74% 6.9 mph E11.1 kmh E 10.7 mph17.2 kmh 30.16 in1021.3 mb 0.00 in0.0 mm 0.00 in0.0 mm 0.00 in0.0 mm
11:03 AM 70.0°F21.1°C 60.6°F15.9°C 72% 6.9 mph NE11.1 kmh NE 13.0 mph20.9 kmh 30.16 in1021.3 mb 0.00 in0.0 mm 0.00 in0.0 mm 0.00 in0.0 mm
11:08 AM 70.2°F21.2°C 60.6°F15.9°C 72% 8.3 mph NE13.4 kmh NE 15.2 mph24.5 kmh 30.16 in1021.3 mb 4.35 in110.5 mm 52.20 in1325.9 mm 4.35 in110.5 mm
11:13 AM 70.0°F21.1°C 60.1°F15.6°C 71% 8.3 mph NE13.4 kmh NE 13.0 mph20.9 kmh 30.16 in1021.3 mb 4.35 in110.5 mm 0.00 in0.0 mm 4.35 in110.5 mm
11:18 AM 68.7°F20.4°C 60.1°F15.6°C 74% 6.9 mph NE11.1 kmh NE 13.0 mph20.9 kmh 30.17 in1021.7 mb 4.35 in110.5 mm 0.00 in0.0 mm 4.35 in110.5 mm
11:23 AM 69.4°F20.8°C 60.4°F15.8°C 73% 7.6 mph NE12.2 kmh NE 13.6 mph21.9 kmh 30.17 in1021.7 mb 4.35 in110.5 mm 0.00 in0.0 mm 4.35 in110.5 mm
11:34 AM 69.6°F20.9°C 60.6°F15.9°C 73% 9.2 mph 14.8 kmh 13.0 mph20.9 kmh 30.16 in1021.3 mb 4.35 in110.5 mm 0.00 in0.0 mm 4.35 in110.5 mm
11:39 AM 69.3°F20.7°C 60.6°F15.9°C 74% 5.4 mph NE8.7 kmh NE 13.6 mph21.9 kmh 30.16 in1021.3 mb 4.35 in110.5 mm 0.00 in0.0 mm 4.35 in110.5 mm
11:44 AM 68.9°F20.5°C 59.9°F15.5°C 73% 12.1 mph NE19.5 kmh NE 19.0 mph30.6 kmh 30.16 in1021.3 mb 4.35 in110.5 mm 0.00 in0.0 mm 4.35 in110.5 mm
11:49 AM 68.0°F20.0°C 60.1°F15.6°C 76% 5.4 mph NE8.7 kmh NE 11.4 mph18.3 kmh 30.16 in1021.3 mb 4.35 in110.5 mm 0.00 in0.0 mm 4.35 in110.5 mm
11:54 AM 68.5°F20.3°C 61.0°F16.1°C 77% 4.5 mph NE7.2 kmh NE 10.7 mph17.2 kmh 30.16 in1021.3 mb 4.35 in110.5 mm 0.00 in0.0 mm 4.35 in110.5 mm
11:59 AM 68.0°F20.0°C 60.1°F15.6°C 76% 7.6 mph E12.2 kmh E 12.1 mph19.5 kmh 30.16 in1021.3 mb 4.35 in110.5 mm 0.00 in0.0 mm 4.35 in110.5 mm
12:05 PM 68.0°F20.0°C 60.4°F15.8°C 77% 4.5 mph NE7.2 kmh NE 10.7 mph17.2 kmh 30.15 in1021.0 mb 0.00 in0.0 mm 0.00 in0.0 mm 4.35 in110.5 mm
12:10 PM 68.0°F20.0°C 60.8°F16.0°C 78% 8.3 mph 13.4 kmh 11.4 mph18.3 kmh 30.15 in1021.0 mb 0.00 in0.0 mm 0.00 in0.0 mm 4.35 in110.5 mm
12:15 PM 68.0°F20.0°C 60.8°F16.0°C 78% 5.4 mph E8.7 kmh E 9.8 mph15.8 kmh 30.15 in1021.0 mb 0.00 in0.0 mm 0.00 in0.0 mm 4.35 in110.5 mm
12:20 PM 68.0°F20.0°C 60.8°F16.0°C 78% 7.6 mph NE12.2 kmh NE 13.0 mph20.9 kmh 30.15 in1021.0 mb 0.00 in0.0 mm 0.00 in0.0 mm 4.35 in110.5 mm
12:25 PM 68.0°F20.0°C 61.2°F16.2°C 79% 3.8 mph 6.1 kmh 11.4 mph18.3 kmh 30.14 in1020.7 mb 0.00 in0.0 mm 0.00 in0.0 mm 4.35 in110.5 mm
12:30 PM 68.0°F20.0°C 61.2°F16.2°C 79% 6.0 mph NNE9.7 kmh NNE 10.7 mph17.2 kmh 30.14 in1020.7 mb 0.00 in0.0 mm 0.00 in0.0 mm 4.35 in110.5 mm
12:36 PM 68.0°F20.0°C 61.2°F16.2°C 79% 5.4 mph NE8.7 kmh NE 11.4 mph18.3 kmh 30.14 in1020.7 mb 0.00 in0.0 mm 0.00 in0.0 mm 4.35 in110.5 mm
12:41 PM 68.0°F20.0°C 61.2°F16.2°C 79% 7.6 mph E12.2 kmh E 10.7 mph17.2 kmh 30.14 in1020.7 mb 0.00 in0.0 mm 0.00 in0.0 mm 4.35 in110.5 mm
12:46 PM 68.0°F20.0°C 61.2°F16.2°C 79% 7.6 mph ENE12.2 kmh ENE 13.0 mph20.9 kmh 30.14 in1020.7 mb 0.00 in0.0 mm 0.00 in0.0 mm 4.35 in110.5 mm
12:51 PM 68.0°F20.0°C 61.2°F16.2°C 79% 5.4 mph NE8.7 kmh NE 12.1 mph19.5 kmh 30.14 in1020.7 mb 0.00 in0.0 mm 0.00 in0.0 mm 4.35 in110.5 mm
12:56 PM 68.0°F20.0°C 61.2°F16.2°C 79% 4.5 mph NE7.2 kmh NE 11.4 mph18.3 kmh 30.13 in1020.3 mb 0.00 in0.0 mm 0.00 in0.0 mm 4.35 in110.5 mm
01:01 PM 68.7°F20.4°C 61.9°F16.6°C 79% 5.4 mph NE8.7 kmh NE 12.1 mph19.5 kmh 30.12 in1020.0 mb 0.00 in0.0 mm 0.00 in0.0 mm 4.35 in110.5 mm
01:07 PM 68.9°F20.5°C 61.3°F16.3°C 77% 6.0 mph NE9.7 kmh NE 9.2 mph14.8 kmh 30.11 in1019.6 mb 0.00 in0.0 mm 0.00 in0.0 mm 4.35 in110.5 mm
01:12 PM 68.9°F20.5°C 61.3°F16.3°C 77% 3.8 mph 6.1 kmh 12.1 mph19.5 kmh 30.11 in1019.6 mb 0.00 in0.0 mm 0.00 in0.0 mm 4.35 in110.5 mm
01:17 PM 69.3°F20.7°C 61.7°F16.5°C 77% 12.1 mph NE19.5 kmh NE 15.9 mph25.6 kmh 30.11 in1019.6 mb 0.00 in0.0 mm 0.00 in0.0 mm 4.35 in110.5 mm
01:22 PM 69.4°F20.8°C 61.5°F16.4°C 76% 6.0 mph NE9.7 kmh NE 15.9 mph25.6 kmh 30.11 in1019.6 mb 0.00 in0.0 mm 0.00 in0.0 mm 4.35 in110.5 mm
01:27 PM 69.3°F20.7°C 61.3°F16.3°C 76% 3.8 mph NE6.1 kmh NE 12.1 mph19.5 kmh 30.10 in1019.3 mb 0.00 in0.0 mm 0.00 in0.0 mm 4.35 in110.5 mm
01:32 PM 69.1°F20.6°C 61.5°F16.4°C 77% 6.0 mph NNE9.7 kmh NNE 7.6 mph12.2 kmh 30.10 in1019.3 mb 0.00 in0.0 mm 0.00 in0.0 mm 4.35 in110.5 mm
01:38 PM 68.5°F20.3°C 61.3°F16.3°C 78% 3.1 mph 5.0 kmh 10.7 mph17.2 kmh 30.11 in1019.6 mb 0.00 in0.0 mm 0.00 in0.0 mm 4.35 in110.5 mm
01:43 PM 68.7°F20.4°C 61.9°F16.6°C 79% 3.8 mph NE6.1 kmh NE 8.3 mph13.4 kmh 30.10 in1019.3 mb 0.00 in0.0 mm 0.00 in0.0 mm 4.35 in110.5 mm
01:48 PM 68.7°F20.4°C 61.9°F16.6°C 79% 6.9 mph NE11.1 kmh NE 9.2 mph14.8 kmh 30.10 in1019.3 mb 0.00 in0.0 mm 0.00 in0.0 mm 4.35 in110.5 mm
01:53 PM 68.5°F20.3°C 61.7°F16.5°C 79% 6.0 mph E9.7 kmh E 11.4 mph18.3 kmh 30.10 in1019.3 mb 0.00 in0.0 mm 0.00 in0.0 mm 4.35 in110.5 mm
01:58 PM 68.5°F20.3°C 61.7°F16.5°C 79% 6.0 mph NE9.7 kmh NE 12.1 mph19.5 kmh 30.10 in1019.3 mb 0.00 in0.0 mm 0.00 in0.0 mm 4.35 in110.5 mm
02:03 PM 69.1°F20.6°C 61.9°F16.6°C 78% 3.8 mph 6.1 kmh 7.6 mph12.2 kmh 30.10 in1019.3 mb 0.00 in0.0 mm 0.00 in0.0 mm 4.35 in110.5 mm
02:09 PM 69.4°F20.8°C 61.9°F16.6°C 77% 6.9 mph ENE11.1 kmh ENE 9.2 mph14.8 kmh 30.10 in1019.3 mb 0.00 in0.0 mm 0.00 in0.0 mm 4.35 in110.5 mm
02:14 PM 69.1°F20.6°C 61.2°F16.2°C 76% 6.0 mph E9.7 kmh E 10.7 mph17.2 kmh 30.10 in1019.3 mb 0.00 in0.0 mm 0.00 in0.0 mm 4.35 in110.5 mm
02:19 PM 68.9°F20.5°C 61.7°F16.5°C 78% 3.8 mph ENE6.1 kmh ENE 8.3 mph13.4 kmh 30.09 in1019.0 mb 0.00 in0.0 mm 0.00 in0.0 mm 4.35 in110.5 mm
02:24 PM 68.7°F20.4°C 61.9°F16.6°C 79% 5.4 mph NE8.7 kmh NE 7.6 mph12.2 kmh 30.09 in1019.0 mb 0.00 in0.0 mm 0.00 in0.0 mm 4.35 in110.5 mm
02:29 PM 68.7°F20.4°C 61.9°F16.6°C 79% 3.8 mph NE6.1 kmh NE 10.7 mph17.2 kmh 30.09 in1019.0 mb 0.00 in0.0 mm 0.00 in0.0 mm 4.35 in110.5 mm
02:34 PM 68.7°F20.4°C 61.9°F16.6°C 79% 3.1 mph 5.0 kmh 7.6 mph12.2 kmh 30.09 in1019.0 mb 0.00 in0.0 mm 0.00 in0.0 mm 4.35 in110.5 mm
02:40 PM 68.5°F20.3°C 61.7°F16.5°C 79% 5.4 mph E8.7 kmh E 9.8 mph15.8 kmh 30.09 in1019.0 mb 0.00 in0.0 mm 0.00 in0.0 mm 4.35 in110.5 mm
02:45 PM 68.0°F20.0°C 61.2°F16.2°C 79% 5.4 mph NE8.7 kmh NE 9.8 mph15.8 kmh 30.09 in1019.0 mb 0.00 in0.0 mm 0.00 in0.0 mm 4.35 in110.5 mm
02:50 PM 68.0°F20.0°C 61.5°F16.4°C 80% 4.5 mph NE7.2 kmh NE 9.2 mph14.8 kmh 30.08 in1018.6 mb 0.00 in0.0 mm 0.00 in0.0 mm 4.35 in110.5 mm
02:55 PM 68.0°F20.0°C 61.5°F16.4°C 80% 5.4 mph NE8.7 kmh NE 9.2 mph14.8 kmh 30.08 in1018.6 mb 0.00 in0.0 mm 0.00 in0.0 mm 4.35 in110.5 mm
03:00 PM 68.0°F20.0°C 61.5°F16.4°C 80% 5.4 mph ENE8.7 kmh ENE 10.7 mph17.2 kmh 30.07 in1018.3 mb 0.00 in0.0 mm 0.00 in0.0 mm 4.35 in110.5 mm
03:05 PM 68.0°F20.0°C 61.5°F16.4°C 80% 3.8 mph NE6.1 kmh NE 10.7 mph17.2 kmh 30.07 in1018.3 mb 0.00 in0.0 mm 0.00 in0.0 mm 4.35 in110.5 mm
03:11 PM 68.0°F20.0°C 61.5°F16.4°C 80% 6.0 mph NE9.7 kmh NE 10.7 mph17.2 kmh 30.07 in1018.3 mb 0.00 in0.0 mm 0.00 in0.0 mm 4.35 in110.5 mm
03:16 PM 68.5°F20.3°C 62.4°F16.9°C 81% 7.6 mph NE12.2 kmh NE 9.2 mph14.8 kmh 30.07 in1018.3 mb 0.00 in0.0 mm 0.00 in0.0 mm 4.35 in110.5 mm
03:21 PM 68.0°F20.0°C 61.9°F16.6°C 81% 7.6 mph E12.2 kmh E 10.7 mph17.2 kmh 30.07 in1018.3 mb 0.00 in0.0 mm 0.00 in0.0 mm 4.35 in110.5 mm
03:26 PM 68.0°F20.0°C 61.9°F16.6°C 81% 6.0 mph E9.7 kmh E 9.8 mph15.8 kmh 30.07 in1018.3 mb 0.00 in0.0 mm 0.00 in0.0 mm 4.35 in110.5 mm
03:31 PM 67.6°F19.8°C 61.9°F16.6°C 82% 6.9 mph NE11.1 kmh NE 9.2 mph14.8 kmh 30.07 in1018.3 mb 0.00 in0.0 mm 0.00 in0.0 mm 4.35 in110.5 mm
03:36 PM 67.5°F19.7°C 62.1°F16.7°C 83% 4.5 mph SE7.2 kmh SE 11.4 mph18.3 kmh 30.07 in1018.3 mb 0.00 in0.0 mm 0.00 in0.0 mm 4.35 in110.5 mm
03:42 PM 67.5°F19.7°C 62.1°F16.7°C 83% 3.8 mph NNE6.1 kmh NNE 8.3 mph13.4 kmh 30.06 in1017.9 mb 0.00 in0.0 mm 0.00 in0.0 mm 4.35 in110.5 mm
03:47 PM 67.5°F19.7°C 62.1°F16.7°C 83% 4.5 mph NE7.2 kmh NE 8.3 mph13.4 kmh 30.07 in1018.3 mb 0.00 in0.0 mm 0.00 in0.0 mm 4.35 in110.5 mm
03:52 PM 67.5°F19.7°C 62.1°F16.7°C 83% 5.4 mph ENE8.7 kmh ENE 9.2 mph14.8 kmh 30.06 in1017.9 mb 0.00 in0.0 mm 0.00 in0.0 mm 4.35 in110.5 mm
03:57 PM 67.5°F19.7°C 62.1°F16.7°C 83% 3.8 mph E6.1 kmh E 9.2 mph14.8 kmh 30.06 in1017.9 mb 0.00 in0.0 mm 0.00 in0.0 mm 4.35 in110.5 mm
04:02 PM 67.8°F19.9°C 62.4°F16.9°C 83% 5.4 mph SE8.7 kmh SE 6.9 mph11.1 kmh 30.07 in1018.3 mb 0.00 in0.0 mm 0.00 in0.0 mm 4.35 in110.5 mm
04:07 PM 67.8°F19.9°C 62.4°F16.9°C 83% 6.0 mph NE9.7 kmh NE 9.2 mph14.8 kmh 30.06 in1017.9 mb 0.00 in0.0 mm 0.00 in0.0 mm 4.35 in110.5 mm
04:13 PM 67.6°F19.8°C 62.2°F16.8°C 83% 5.4 mph NE8.7 kmh NE 9.2 mph14.8 kmh 30.06 in1017.9 mb 0.00 in0.0 mm 0.00 in0.0 mm 4.35 in110.5 mm
04:18 PM 67.5°F19.7°C 62.1°F16.7°C 83% 6.0 mph ENE9.7 kmh ENE 8.3 mph13.4 kmh 30.06 in1017.9 mb 0.00 in0.0 mm 0.00 in0.0 mm 4.35 in110.5 mm
04:23 PM 67.3°F19.6°C 62.2°F16.8°C 84% 6.0 mph NE9.7 kmh NE 10.7 mph17.2 kmh 30.07 in1018.3 mb 0.00 in0.0 mm 0.00 in0.0 mm 4.35 in110.5 mm
04:28 PM 67.1°F19.5°C 62.4°F16.9°C 85% 6.9 mph ENE11.1 kmh ENE 9.2 mph14.8 kmh 30.06 in1017.9 mb 0.00 in0.0 mm 0.00 in0.0 mm 4.35 in110.5 mm
04:33 PM 66.7°F19.3°C 62.8°F17.1°C 87% 6.9 mph NE11.1 kmh NE 9.8 mph15.8 kmh 30.06 in1017.9 mb 0.00 in0.0 mm 0.00 in0.0 mm 4.35 in110.5 mm
04:39 PM 66.7°F19.3°C 63.1°F17.3°C 88% 3.8 mph E6.1 kmh E 7.6 mph12.2 kmh 30.06 in1017.9 mb 0.00 in0.0 mm 0.00 in0.0 mm 4.35 in110.5 mm
04:44 PM 66.7°F19.3°C 63.1°F17.3°C 88% 6.9 mph E11.1 kmh E 9.8 mph15.8 kmh 30.06 in1017.9 mb 0.00 in0.0 mm 0.00 in0.0 mm 4.35 in110.5 mm
04:49 PM 66.7°F19.3°C 63.3°F17.4°C 89% 5.4 mph NE8.7 kmh NE 12.1 mph19.5 kmh 30.06 in1017.9 mb 0.00 in0.0 mm 0.00 in0.0 mm 4.35 in110.5 mm
04:54 PM 66.7°F19.3°C 63.3°F17.4°C 89% 5.4 mph NE8.7 kmh NE 10.7 mph17.2 kmh 30.06 in1017.9 mb 0.00 in0.0 mm 0.00 in0.0 mm 4.35 in110.5 mm
04:59 PM 66.9°F19.4°C 63.5°F17.5°C 89% 3.1 mph NE5.0 kmh NE 7.6 mph12.2 kmh 30.06 in1017.9 mb 0.00 in0.0 mm 0.00 in0.0 mm 4.35 in110.5 mm
05:04 PM 66.9°F19.4°C 63.9°F17.7°C 90% 6.0 mph NE9.7 kmh NE 8.3 mph13.4 kmh 30.06 in1017.9 mb 0.00 in0.0 mm 0.00 in0.0 mm 4.35 in110.5 mm
05:10 PM 66.7°F19.3°C 63.7°F17.6°C 90% 6.0 mph E9.7 kmh E 8.3 mph13.4 kmh 30.06 in1017.9 mb 0.00 in0.0 mm 0.00 in0.0 mm 4.35 in110.5 mm
05:15 PM 66.6°F19.2°C 63.5°F17.5°C 90% 5.4 mph E8.7 kmh E 10.7 mph17.2 kmh 30.06 in1017.9 mb 0.00 in0.0 mm 0.00 in0.0 mm 4.35 in110.5 mm
05:20 PM 66.6°F19.2°C 63.5°F17.5°C 90% 6.0 mph E9.7 kmh E 8.3 mph13.4 kmh 30.06 in1017.9 mb 0.00 in0.0 mm 0.00 in0.0 mm 4.35 in110.5 mm
05:25 PM 66.6°F19.2°C 63.5°F17.5°C 90% 6.0 mph ENE9.7 kmh ENE 10.7 mph17.2 kmh 30.06 in1017.9 mb 0.00 in0.0 mm 0.00 in0.0 mm 4.35 in110.5 mm
05:30 PM 66.4°F19.1°C 63.7°F17.6°C 91% 3.1 mph E5.0 kmh E 10.7 mph17.2 kmh 30.06 in1017.9 mb 0.00 in0.0 mm 0.00 in0.0 mm 4.35 in110.5 mm
05:35 PM 66.4°F19.1°C 63.7°F17.6°C 91% 4.5 mph E7.2 kmh E 9.2 mph14.8 kmh 30.06 in1017.9 mb 0.00 in0.0 mm 0.00 in0.0 mm 4.35 in110.5 mm
05:41 PM 66.4°F19.1°C 63.7°F17.6°C 91% 4.5 mph E7.2 kmh E 10.7 mph17.2 kmh 30.06 in1017.9 mb 0.00 in0.0 mm 0.00 in0.0 mm 4.35 in110.5 mm
05:46 PM 66.4°F19.1°C 64.0°F17.8°C 92% 2.2 mph NE3.5 kmh NE 6.9 mph11.1 kmh 30.06 in1017.9 mb 0.00 in0.0 mm 0.00 in0.0 mm 4.35 in110.5 mm
05:51 PM 66.4°F19.1°C 64.0°F17.8°C 92% 3.1 mph E5.0 kmh E 4.5 mph7.2 kmh 30.06 in1017.9 mb 0.00 in0.0 mm 0.00 in0.0 mm 4.35 in110.5 mm
05:56 PM 66.4°F19.1°C 64.0°F17.8°C 92% 3.1 mph E5.0 kmh E 6.9 mph11.1 kmh 30.06 in1017.9 mb 0.00 in0.0 mm 0.00 in0.0 mm 4.35 in110.5 mm
06:01 PM 66.2°F19.0°C 63.9°F17.7°C 92% 4.5 mph NE7.2 kmh NE 6.9 mph11.1 kmh 30.06 in1017.9 mb 0.00 in0.0 mm 0.00 in0.0 mm 4.35 in110.5 mm
06:06 PM 66.2°F19.0°C 63.9°F17.7°C 92% 4.5 mph E7.2 kmh E 7.6 mph12.2 kmh 30.06 in1017.9 mb 0.00 in0.0 mm 0.00 in0.0 mm 4.35 in110.5 mm
06:12 PM 66.0°F18.9°C 63.7°F17.6°C 92% 5.4 mph E8.7 kmh E 7.6 mph12.2 kmh 30.06 in1017.9 mb 0.00 in0.0 mm 0.00 in0.0 mm 4.35 in110.5 mm
06:17 PM 66.0°F18.9°C 63.7°F17.6°C 92% 3.8 mph E6.1 kmh E 7.6 mph12.2 kmh 30.07 in1018.3 mb 0.00 in0.0 mm 0.00 in0.0 mm 4.35 in110.5 mm
06:22 PM 66.0°F18.9°C 63.7°F17.6°C 92% 3.1 mph E5.0 kmh E 5.4 mph8.7 kmh 30.07 in1018.3 mb 0.00 in0.0 mm 0.00 in0.0 mm 4.35 in110.5 mm
06:27 PM 66.0°F18.9°C 63.7°F17.6°C 92% 2.2 mph E3.5 kmh E 4.5 mph7.2 kmh 30.07 in1018.3 mb 0.00 in0.0 mm 0.00 in0.0 mm 4.35 in110.5 mm
06:32 PM 66.0°F18.9°C 63.9°F17.7°C 93% 3.1 mph E5.0 kmh E 4.5 mph7.2 kmh 30.07 in1018.3 mb 0.00 in0.0 mm 0.00 in0.0 mm 4.35 in110.5 mm
06:37 PM 66.0°F18.9°C 63.9°F17.7°C 93% 3.1 mph E5.0 kmh E 5.4 mph8.7 kmh 30.07 in1018.3 mb 0.00 in0.0 mm 0.00 in0.0 mm 4.35 in110.5 mm
06:43 PM 66.0°F18.9°C 63.9°F17.7°C 93% 2.2 mph ENE3.5 kmh ENE 5.4 mph8.7 kmh 30.07 in1018.3 mb 0.00 in0.0 mm 0.00 in0.0 mm 4.35 in110.5 mm
06:48 PM 66.0°F18.9°C 63.9°F17.7°C 93% 2.2 mph E3.5 kmh E 5.4 mph8.7 kmh 30.06 in1017.9 mb 0.00 in0.0 mm 0.00 in0.0 mm 4.35 in110.5 mm
06:53 PM 65.8°F18.8°C 63.7°F17.6°C 93% 4.5 mph SE7.2 kmh SE 5.4 mph8.7 kmh 30.07 in1018.3 mb 0.00 in0.0 mm 0.00 in0.0 mm 4.35 in110.5 mm
06:58 PM 65.8°F18.8°C 63.7°F17.6°C 93% 0.7 mph SE1.1 kmh SE 5.4 mph8.7 kmh 30.07 in1018.3 mb 0.00 in0.0 mm 0.00 in0.0 mm 4.35 in110.5 mm
07:03 PM 65.7°F18.7°C 63.5°F17.5°C 93% 3.1 mph E5.0 kmh E 4.5 mph7.2 kmh 30.07 in1018.3 mb 0.00 in0.0 mm 0.00 in0.0 mm 4.35 in110.5 mm
07:08 PM 65.7°F18.7°C 63.9°F17.7°C 94% 2.2 mph SE3.5 kmh SE 4.5 mph7.2 kmh 30.07 in1018.3 mb 0.00 in0.0 mm 0.00 in0.0 mm 4.35 in110.5 mm
07:14 PM 65.7°F18.7°C 63.9°F17.7°C 94% 2.2 mph ESE3.5 kmh ESE 4.5 mph7.2 kmh 30.07 in1018.3 mb 0.00 in0.0 mm 0.00 in0.0 mm 4.35 in110.5 mm
07:19 PM 65.7°F18.7°C 63.9°F17.7°C 94% 3.1 mph SE5.0 kmh SE 5.4 mph8.7 kmh 30.06 in1017.9 mb 0.00 in0.0 mm 0.00 in0.0 mm 4.35 in110.5 mm
07:24 PM 65.5°F18.6°C 64.0°F17.8°C 95% 3.1 mph E5.0 kmh E 6.9 mph11.1 kmh 30.07 in1018.3 mb 0.00 in0.0 mm 0.00 in0.0 mm 4.35 in110.5 mm
07:29 PM 65.5°F18.6°C 64.0°F17.8°C 95% 3.1 mph E5.0 kmh E 5.4 mph8.7 kmh 30.07 in1018.3 mb 0.00 in0.0 mm 0.00 in0.0 mm 4.35 in110.5 mm
07:34 PM 65.5°F18.6°C 64.0°F17.8°C 95% 3.1 mph E5.0 kmh E 5.4 mph8.7 kmh 30.07 in1018.3 mb 0.00 in0.0 mm 0.00 in0.0 mm 4.35 in110.5 mm
07:39 PM 65.5°F18.6°C 64.0°F17.8°C 95% 2.2 mph E3.5 kmh E 5.4 mph8.7 kmh 30.07 in1018.3 mb 0.00 in0.0 mm 0.00 in0.0 mm 4.35 in110.5 mm
07:45 PM 65.5°F18.6°C 64.0°F17.8°C 95% 3.1 mph ESE5.0 kmh ESE 6.9 mph11.1 kmh 30.07 in1018.3 mb 0.00 in0.0 mm 0.00 in0.0 mm 4.35 in110.5 mm
07:50 PM 65.5°F18.6°C 64.2°F17.9°C 96% 0.7 mph E1.1 kmh E 4.5 mph7.2 kmh 30.07 in1018.3 mb 0.00 in0.0 mm 0.00 in0.0 mm 4.35 in110.5 mm
07:55 PM 65.5°F18.6°C 64.2°F17.9°C 96% 0.7 mph S1.1 kmh S 3.8 mph6.1 kmh 30.08 in1018.6 mb 0.00 in0.0 mm 0.00 in0.0 mm 4.35 in110.5 mm
08:00 PM 65.3°F18.5°C 64.0°F17.8°C 96% 0.7 mph SE1.1 kmh SE 4.5 mph7.2 kmh 30.08 in1018.6 mb 0.00 in0.0 mm 0.00 in0.0 mm 4.35 in110.5 mm
08:05 PM 65.3°F18.5°C 64.0°F17.8°C 96% Calm Calm 3.1 mph5.0 kmh 30.09 in1019.0 mb 0.00 in0.0 mm 0.00 in0.0 mm 4.35 in110.5 mm
08:10 PM 65.5°F18.6°C 64.2°F17.9°C 96% 3.1 mph E5.0 kmh E 4.5 mph7.2 kmh 30.09 in1019.0 mb 0.00 in0.0 mm 0.00 in0.0 mm 4.35 in110.5 mm
08:16 PM 65.5°F18.6°C 64.2°F17.9°C 96% 2.2 mph ESE3.5 kmh ESE 4.5 mph7.2 kmh 30.08 in1018.6 mb 0.00 in0.0 mm 0.00 in0.0 mm 4.35 in110.5 mm
08:21 PM 65.5°F18.6°C 64.2°F17.9°C 96% 3.1 mph E5.0 kmh E 6.0 mph9.7 kmh 30.09 in1019.0 mb 0.00 in0.0 mm 0.00 in0.0 mm 4.35 in110.5 mm
08:26 PM 65.5°F18.6°C 64.2°F17.9°C 96% 2.2 mph SE3.5 kmh SE 6.0 mph9.7 kmh 30.08 in1018.6 mb 0.00 in0.0 mm 0.00 in0.0 mm 4.35 in110.5 mm
08:31 PM 65.5°F18.6°C 64.2°F17.9°C 96% 3.8 mph E6.1 kmh E 5.4 mph8.7 kmh 30.09 in1019.0 mb 0.00 in0.0 mm 0.00 in0.0 mm 4.35 in110.5 mm
08:36 PM 65.5°F18.6°C 64.2°F17.9°C 96% 4.5 mph E7.2 kmh E 6.9 mph11.1 kmh 30.08 in1018.6 mb 0.00 in0.0 mm 0.00 in0.0 mm 4.35 in110.5 mm
08:41 PM 65.5°F18.6°C 64.2°F17.9°C 96% 5.4 mph E8.7 kmh E 6.9 mph11.1 kmh 30.09 in1019.0 mb 0.00 in0.0 mm 0.00 in0.0 mm 4.35 in110.5 mm
08:47 PM 65.5°F18.6°C 64.2°F17.9°C 96% 4.5 mph E7.2 kmh E 6.9 mph11.1 kmh 30.08 in1018.6 mb 0.00 in0.0 mm 0.00 in0.0 mm 4.35 in110.5 mm
08:52 PM 65.5°F18.6°C 64.0°F17.8°C 95% 3.1 mph E5.0 kmh E 7.6 mph12.2 kmh 30.08 in1018.6 mb 0.00 in0.0 mm 0.00 in0.0 mm 4.35 in110.5 mm
08:57 PM 65.5°F18.6°C 64.0°F17.8°C 95% 3.1 mph E5.0 kmh E 6.0 mph9.7 kmh 30.08 in1018.6 mb 0.00 in0.0 mm 0.00 in0.0 mm 4.35 in110.5 mm
09:02 PM 65.7°F18.7°C 64.2°F17.9°C 95% 3.1 mph E5.0 kmh E 6.9 mph11.1 kmh 30.08 in1018.6 mb 0.00 in0.0 mm 0.00 in0.0 mm 4.35 in110.5 mm
09:07 PM 65.7°F18.7°C 64.2°F17.9°C 95% 2.2 mph NNE3.5 kmh NNE 6.0 mph9.7 kmh 30.08 in1018.6 mb 0.00 in0.0 mm 0.00 in0.0 mm 4.35 in110.5 mm
09:12 PM 65.5°F18.6°C 64.0°F17.8°C 95% 3.8 mph E6.1 kmh E 6.9 mph11.1 kmh 30.08 in1018.6 mb 0.00 in0.0 mm 0.00 in0.0 mm 4.35 in110.5 mm
09:18 PM 65.5°F18.6°C 64.0°F17.8°C 95% 4.5 mph E7.2 kmh E 6.9 mph11.1 kmh 30.09 in1019.0 mb 0.00 in0.0 mm 0.00 in0.0 mm 4.35 in110.5 mm
09:23 PM 65.7°F18.7°C 64.2°F17.9°C 95% 4.5 mph E7.2 kmh E 6.9 mph11.1 kmh 30.08 in1018.6 mb 0.00 in0.0 mm 0.00 in0.0 mm 4.35 in110.5 mm
09:28 PM 65.5°F18.6°C 64.0°F17.8°C 95% 2.2 mph E3.5 kmh E 5.4 mph8.7 kmh 30.09 in1019.0 mb 0.00 in0.0 mm 0.00 in0.0 mm 4.35 in110.5 mm
09:33 PM 65.5°F18.6°C 63.7°F17.6°C 94% 1.6 mph E2.6 kmh E 4.5 mph7.2 kmh 30.09 in1019.0 mb 0.00 in0.0 mm 0.00 in0.0 mm 4.35 in110.5 mm
09:38 PM 65.5°F18.6°C 63.7°F17.6°C 94% 2.2 mph E3.5 kmh E 3.8 mph6.1 kmh 30.09 in1019.0 mb 0.00 in0.0 mm 0.00 in0.0 mm 4.35 in110.5 mm
09:43 PM 65.7°F18.7°C 63.9°F17.7°C 94% 3.1 mph E5.0 kmh E 5.4 mph8.7 kmh 30.08 in1018.6 mb 0.00 in0.0 mm 0.00 in0.0 mm 4.35 in110.5 mm
09:49 PM 65.7°F18.7°C 63.9°F17.7°C 94% 1.6 mph E2.6 kmh E 5.4 mph8.7 kmh 30.09 in1019.0 mb 0.00 in0.0 mm 0.00 in0.0 mm 4.35 in110.5 mm
09:54 PM 65.7°F18.7°C 63.9°F17.7°C 94% 3.8 mph E6.1 kmh E 4.5 mph7.2 kmh 30.08 in1018.6 mb 0.00 in0.0 mm 0.00 in0.0 mm 4.35 in110.5 mm
09:59 PM 65.7°F18.7°C 64.2°F17.9°C 95% 3.1 mph E5.0 kmh E 4.5 mph7.2 kmh 30.08 in1018.6 mb 0.00 in0.0 mm 0.00 in0.0 mm 4.35 in110.5 mm
10:04 PM 65.7°F18.7°C 64.2°F17.9°C 95% 1.6 mph E2.6 kmh E 4.5 mph7.2 kmh 30.08 in1018.6 mb 0.00 in0.0 mm 0.00 in0.0 mm 4.35 in110.5 mm
10:09 PM 65.5°F18.6°C 64.0°F17.8°C 95% 1.6 mph E2.6 kmh E 3.1 mph5.0 kmh 30.08 in1018.6 mb 0.00 in0.0 mm 0.00 in0.0 mm 4.35 in110.5 mm
10:14 PM 65.5°F18.6°C 64.0°F17.8°C 95% 2.2 mph SE3.5 kmh SE 4.5 mph7.2 kmh 30.09 in1019.0 mb 0.00 in0.0 mm 0.00 in0.0 mm 4.35 in110.5 mm
10:20 PM 65.5°F18.6°C 64.0°F17.8°C 95% 2.2 mph E3.5 kmh E 5.4 mph8.7 kmh 30.09 in1019.0 mb 0.00 in0.0 mm 0.00 in0.0 mm 4.35 in110.5 mm
10:25 PM 65.5°F18.6°C 64.0°F17.8°C 95% 2.2 mph SE3.5 kmh SE 4.5 mph7.2 kmh 30.09 in1019.0 mb 0.00 in0.0 mm 0.00 in0.0 mm 4.35 in110.5 mm
10:30 PM 65.5°F18.6°C 64.0°F17.8°C 95% 2.2 mph SE3.5 kmh SE 4.5 mph7.2 kmh 30.09 in1019.0 mb 0.00 in0.0 mm 0.00 in0.0 mm 4.35 in110.5 mm
10:35 PM 65.5°F18.6°C 64.0°F17.8°C 95% 4.5 mph E7.2 kmh E 6.9 mph11.1 kmh 30.08 in1018.6 mb 0.00 in0.0 mm 0.00 in0.0 mm 4.35 in110.5 mm
10:40 PM 65.5°F18.6°C 64.0°F17.8°C 95% 4.5 mph E7.2 kmh E 6.9 mph11.1 kmh 30.08 in1018.6 mb 0.00 in0.0 mm 0.00 in0.0 mm 4.35 in110.5 mm
10:46 PM 65.5°F18.6°C 64.2°F17.9°C 96% 4.5 mph NE7.2 kmh NE 6.9 mph11.1 kmh 30.08 in1018.6 mb 0.00 in0.0 mm 0.00 in0.0 mm 4.35 in110.5 mm
10:51 PM 65.5°F18.6°C 64.2°F17.9°C 96% 4.5 mph E7.2 kmh E 6.9 mph11.1 kmh 30.08 in1018.6 mb 0.00 in0.0 mm 0.00 in0.0 mm 4.35 in110.5 mm
10:56 PM 65.5°F18.6°C 64.2°F17.9°C 96% 3.1 mph E5.0 kmh E 6.9 mph11.1 kmh 30.09 in1019.0 mb 0.00 in0.0 mm 0.00 in0.0 mm 4.35 in110.5 mm
11:01 PM 65.5°F18.6°C 64.2°F17.9°C 96% 3.1 mph E5.0 kmh E 6.0 mph9.7 kmh 30.09 in1019.0 mb 0.00 in0.0 mm 0.00 in0.0 mm 4.35 in110.5 mm
11:06 PM 65.5°F18.6°C 64.2°F17.9°C 96% 4.5 mph E7.2 kmh E 5.4 mph8.7 kmh 30.08 in1018.6 mb 0.00 in0.0 mm 0.00 in0.0 mm 4.35 in110.5 mm
11:11 PM 65.5°F18.6°C 64.2°F17.9°C 96% 4.5 mph E7.2 kmh E 6.9 mph11.1 kmh 30.09 in1019.0 mb 0.00 in0.0 mm 0.00 in0.0 mm 4.35 in110.5 mm
11:17 PM 65.5°F18.6°C 64.2°F17.9°C 96% 3.8 mph NE6.1 kmh NE 6.0 mph9.7 kmh 30.09 in1019.0 mb 0.00 in0.0 mm 0.00 in0.0 mm 4.35 in110.5 mm
11:22 PM 65.5°F18.6°C 64.6°F18.1°C 97% 3.8 mph E6.1 kmh E 6.9 mph11.1 kmh 30.08 in1018.6 mb 0.00 in0.0 mm 0.00 in0.0 mm 4.35 in110.5 mm
11:27 PM 65.5°F18.6°C 64.6°F18.1°C 97% 3.8 mph E6.1 kmh E 6.0 mph9.7 kmh 30.08 in1018.6 mb 0.00 in0.0 mm 0.00 in0.0 mm 4.35 in110.5 mm
11:32 PM 65.5°F18.6°C 64.6°F18.1°C 97% 4.5 mph NE7.2 kmh NE 6.0 mph9.7 kmh 30.08 in1018.6 mb 0.00 in0.0 mm 0.00 in0.0 mm 4.35 in110.5 mm
11:37 PM 65.5°F18.6°C 64.6°F18.1°C 97% 2.2 mph E3.5 kmh E 6.0 mph9.7 kmh 30.08 in1018.6 mb 0.00 in0.0 mm 0.00 in0.0 mm 4.35 in110.5 mm
11:42 PM 65.5°F18.6°C 64.6°F18.1°C 97% 3.8 mph E6.1 kmh E 6.0 mph9.7 kmh 30.08 in1018.6 mb 0.00 in0.0 mm 0.00 in0.0 mm 4.35 in110.5 mm
11:48 PM 65.5°F18.6°C 64.6°F18.1°C 97% 2.2 mph E3.5 kmh E 6.0 mph9.7 kmh 30.08 in1018.6 mb 0.00 in0.0 mm 0.00 in0.0 mm 4.35 in110.5 mm
11:53 PM 65.5°F18.6°C 64.6°F18.1°C 97% 3.8 mph E6.1 kmh E 5.4 mph8.7 kmh 30.08 in1018.6 mb 0.00 in0.0 mm 0.00 in0.0 mm 4.35 in110.5 mm
11:58 PM 65.5°F18.6°C 64.6°F18.1°C 97% 3.1 mph E5.0 kmh E 6.9 mph11.1 kmh 30.08 in1018.6 mb 0.00 in0.0 mm 0.00 in0.0 mm 4.35 in110.5 mm